KRTN/RTN METAR and TAF weather

Enter ICAO airport designator
Station Type Date Time Source
KRTN METAR 2023/03/30 22:53 UTC NOAA

KRTN 302253Z AUTO 23025G38KT 10SM CLR 19/M16 A2951 RMK AO2 PK WND 25043/2205 SLP941 T01941161


Station Type Date Time Source
KRTN Decoded METAR 2023/03/30 22:53 UTC NOAA

Raton, Raton Municipal \ Crews Field Airport, NM, United States (KRTN) 36-44-31N 104-39-28W 1939M
Mar 30, 2023 - 06:53 PM EDT / 2023.03.30 2253 UTC
Wind: from the SW (230 degrees) at 29 MPH (25 KT) gusting to 44 MPH (38 KT):0
Visibility: 10 mile(s):0
Sky conditions: clear
Temperature: 66.9 F (19.4 C)
Dew Point: 3.0 F (-16.1 C)
Relative Humidity: 7%
Pressure (altimeter): 29.51 in. Hg (999 hPa)
ob: KRTN 302253Z AUTO 23025G38KT 10SM CLR 19/M16 A2951 RMK AO2 PK WND 25043/2205 SLP941 T01941161
cycle: 23

Station Type Date Time Source
KRTN TAF UTC NOAA

Error!

Example: see airport list